STAZIONE METEO DI BARCELLONA P.G. CENTRO
Dati campionati ogni minuto da Consolle Davis Vantage Pro 2
ed inviati alla rete mediante server Anemos WDS5 wview



Barcellona P.G. Centro more information Barcellona P.G. Centro


Golfo di Patti more information Golfo di Patti


Thunder radar more information blitzortung!


Rain radar  rain snow radar


altri nostri siti meteo:

Rischio IncendiRischio Incendi

Rete NOAA MADIS

Italia Meteo Network

PomeziameteoSito web di stazione meteo amica



Non è richiesta alcuna attenzione speciale.    Non sono presenti avvisi meteorologici di particolare rilevanza

Report METAR

   
LICF - Messina, Italy
Distanza dalla stazione: NE 30 km
Dati ricevuti: 17-06-2019 22:55
Poche nuvole  
Poche nuvole  
   Vento: NE 3.7 km/h
Vento: NE 3.7 km/h
Temperatura: 24°C
P.to Rugiada: 22°C
Umidità: 89%
Barometro: 1013 hPa
Nuvole: Poche nuvole
Visibilità: oltre 10 km
dettagli cloud: Poche nuvole 548.6 m
LICF 172055Z 02002KT 9999 FEW018 24/22 Q1013 RMK FEW QUK / QUL / VIS MAR 12 KM MON INVIS NC VIS MIN 9999
LICR - Reggio Calabria, Italy
Distanza dalla stazione: SE 39 km
Dati ricevuti: 17-06-2019 22:50
Sereno  
Sereno  
   Vento: Nord 16.7 km/h
Vento: Nord 16.7 km/h
Temperatura: 24°C
P.to Rugiada: 20°C
Umidità: 78%
Barometro: 1013 hPa
Visibilità: oltre 10 km
dettagli cloud: Sereno
LICR 172050Z 35009KT CAVOK 24/20 Q1013
LICC - Catania/Fontanar, Italy
Distanza dalla stazione: S 77 km
Dati ricevuti: 17-06-2019 22:50
Sereno  
Sereno  
   Vento: NE 14.8 km/h
Vento: NE 14.8 km/h
Temperatura: 24°C
P.to Rugiada: 19°C
Umidità: 74%
Barometro: 1013 hPa
Visibilità: oltre 10 km
dettagli cloud: Sereno
LICC 172050Z 07008KT CAVOK 24/19 Q1013
LICZ - Sigonella (nas), Italy
Distanza dalla stazione: S 89 km
Dati ricevuti: 17-06-2019 22:55
Sereno  
Sereno  
   Vento: SE 3.7 km/h
Vento: SE 3.7 km/h
Temperatura: 21°C
P.to Rugiada: 21°C
Umidità: 100%
Barometro: 1013 hPa
Visibilità: oltre 10 km
dettagli cloud: Sereno
LICZ 172055Z 13002KT CAVOK 21/21 Q1013 RMK SKC VIS MIN 9999 WIND THR28 12004KT WIND THR10 13003KT A2993 BLU
LICA - Lamezia Terme, Italy
Distanza dalla stazione: NE 122 km
Dati ricevuti: 17-06-2019 22:50
Parzialmente nuvoloso  
Parzialmente nuvoloso  
   Vento: calma
Vento: calma
Temperatura: 24°C
P.to Rugiada: 21°C
Umidità: 83%
Barometro: 1013 hPa
Nuvole: Parzialmente nuvoloso
Visibilità: oltre 10 km
dettagli cloud: Parzialmente nuvoloso 457.2 m
LICA 172050Z 00000KT 9999 SCT015 24/21 Q1013
LICB - Comiso, Italy
Distanza dalla stazione: S 138 km
Dati ricevuti: 17-06-2019 22:50
Sereno  
Sereno  
   Vento: NE 7.4 km/h
Vento: NE 7.4 km/h
Temperatura: 22°C
P.to Rugiada: 14°C
Umidità: 61%
Barometro: 1013 hPa
Visibilità: oltre 10 km
dettagli cloud: Sereno
LICB 172050Z 06004KT CAVOK 22/14 Q1013

Script sviluppato da  Saratoga-weather.org Adattato per il modello da  Weerstation Leuven

Potete trovare le nostre info meteo anche a:

European Weather Network

Weather Underground

AWEKAS

Citizen Weather Observer Program (CWOP)

HAMweather, WeatherForYou, PWS Weather

Attrezzature usate:

Stazione meteo
Davis VP2

Programma gestore dati meteo
WVIEW

Server per i dati meteo
WDS5 Ecoblack

Davis VP2

WVIEW

WDS5 Ecoblack